sensor_id;sensor_type;location;lat;lon;timestamp;P1;durP1;ratioP1;P2;durP2;ratioP2
37303;SDS011;23188;51.188;16.374;2022-11-03T00:00:53;14.75;;;6.47;;
37303;SDS011;23188;51.188;16.374;2022-11-03T00:04:54;6.87;;;4.17;;
37303;SDS011;23188;51.188;16.374;2022-11-03T00:08:59;9.95;;;5.67;;
37303;SDS011;23188;51.188;16.374;2022-11-03T00:13:03;9.95;;;5.97;;
37303;SDS011;23188;51.188;16.374;2022-11-03T00:17:04;13.28;;;5.33;;
37303;SDS011;23188;51.188;16.374;2022-11-03T00:21:06;8.53;;;5.08;;
37303;SDS011;23188;51.188;16.374;2022-11-03T00:25:10;5.50;;;4.80;;
37303;SDS011;23188;51.188;16.374;2022-11-03T00:29:12;9.85;;;5.45;;
37303;SDS011;23188;51.188;16.374;2022-11-03T00:33:14;10.15;;;5.30;;
37303;SDS011;23188;51.188;16.374;2022-11-03T00:37:15;7.58;;;4.90;;
37303;SDS011;23188;51.188;16.374;2022-11-03T00:41:17;8.23;;;4.90;;
37303;SDS011;23188;51.188;16.374;2022-11-03T00:45:22;6.25;;;4.53;;
37303;SDS011;23188;51.188;16.374;2022-11-03T00:49:24;10.82;;;6.25;;
37303;SDS011;23188;51.188;16.374;2022-11-03T00:53:25;8.65;;;5.60;;
37303;SDS011;23188;51.188;16.374;2022-11-03T00:57:28;8.18;;;4.87;;
37303;SDS011;23188;51.188;16.374;2022-11-03T01:01:31;9.00;;;4.90;;
37303;SDS011;23188;51.188;16.374;2022-11-03T01:05:40;11.73;;;4.37;;
37303;SDS011;23188;51.188;16.374;2022-11-03T01:10:01;5.95;;;3.47;;
37303;SDS011;23188;51.188;16.374;2022-11-03T01:14:02;6.80;;;4.75;;
37303;SDS011;23188;51.188;16.374;2022-11-03T01:18:04;5.97;;;3.42;;
37303;SDS011;23188;51.188;16.374;2022-11-03T01:22:05;5.85;;;3.50;;
37303;SDS011;23188;51.188;16.374;2022-11-03T01:26:08;11.33;;;4.05;;
37303;SDS011;23188;51.188;16.374;2022-11-03T01:30:12;5.20;;;4.42;;
37303;SDS011;23188;51.188;16.374;2022-11-03T01:34:14;6.72;;;3.98;;
37303;SDS011;23188;51.188;16.374;2022-11-03T01:38:16;8.80;;;4.50;;
37303;SDS011;23188;51.188;16.374;2022-11-03T01:42:18;8.43;;;3.87;;
37303;SDS011;23188;51.188;16.374;2022-11-03T01:46:21;11.25;;;4.00;;
37303;SDS011;23188;51.188;16.374;2022-11-03T01:50:28;6.85;;;3.83;;
37303;SDS011;23188;51.188;16.374;2022-11-03T01:54:29;11.22;;;3.75;;
37303;SDS011;23188;51.188;16.374;2022-11-03T01:58:33;5.08;;;3.67;;
37303;SDS011;23188;51.188;16.374;2022-11-03T02:02:37;6.30;;;4.08;;
37303;SDS011;23188;51.188;16.374;2022-11-03T02:06:40;3.02;;;2.42;;
37303;SDS011;23188;51.188;16.374;2022-11-03T02:10:42;5.33;;;3.20;;
37303;SDS011;23188;51.188;16.374;2022-11-03T02:14:49;6.95;;;3.67;;
37303;SDS011;23188;51.188;16.374;2022-11-03T02:18:57;10.58;;;3.27;;
37303;SDS011;23188;51.188;16.374;2022-11-03T02:27:41;4.20;;;3.00;;
37303;SDS011;23188;51.188;16.374;2022-11-03T02:31:45;6.85;;;3.30;;
37303;SDS011;23188;51.188;16.374;2022-11-03T02:40:15;5.12;;;3.77;;
37303;SDS011;23188;51.188;16.374;2022-11-03T02:44:27;9.10;;;3.67;;
37303;SDS011;23188;51.188;16.374;2022-11-03T02:48:29;15.58;;;3.95;;
37303;SDS011;23188;51.188;16.374;2022-11-03T02:52:32;5.30;;;3.42;;
37303;SDS011;23188;51.188;16.374;2022-11-03T02:56:45;5.67;;;3.90;;
37303;SDS011;23188;51.188;16.374;2022-11-03T03:05:10;4.80;;;3.22;;
37303;SDS011;23188;51.188;16.374;2022-11-03T03:09:17;6.47;;;4.03;;
37303;SDS011;23188;51.188;16.374;2022-11-03T03:13:21;3.40;;;2.65;;
37303;SDS011;23188;51.188;16.374;2022-11-03T03:21:36;8.90;;;2.80;;
37303;SDS011;23188;51.188;16.374;2022-11-03T03:25:42;4.12;;;3.47;;
37303;SDS011;23188;51.188;16.374;2022-11-03T03:29:57;9.88;;;3.92;;
37303;SDS011;23188;51.188;16.374;2022-11-03T03:34:05;2.80;;;2.60;;
37303;SDS011;23188;51.188;16.374;2022-11-03T03:38:09;4.85;;;3.60;;
37303;SDS011;23188;51.188;16.374;2022-11-03T03:42:17;4.28;;;2.83;;
37303;SDS011;23188;51.188;16.374;2022-11-03T03:46:23;4.25;;;3.37;;
37303;SDS011;23188;51.188;16.374;2022-11-03T03:50:29;7.08;;;4.30;;
37303;SDS011;23188;51.188;16.374;2022-11-03T03:54:35;9.23;;;4.22;;
37303;SDS011;23188;51.188;16.374;2022-11-03T03:58:36;8.30;;;3.55;;
37303;SDS011;23188;51.188;16.374;2022-11-03T04:02:38;5.83;;;3.87;;
37303;SDS011;23188;51.188;16.374;2022-11-03T04:06:39;7.20;;;2.83;;
37303;SDS011;23188;51.188;16.374;2022-11-03T04:10:41;5.12;;;3.37;;
37303;SDS011;23188;51.188;16.374;2022-11-03T04:19:08;8.78;;;5.42;;
37303;SDS011;23188;51.188;16.374;2022-11-03T04:23:31;16.75;;;5.83;;
37303;SDS011;23188;51.188;16.374;2022-11-03T04:27:33;5.00;;;4.50;;
37303;SDS011;23188;51.188;16.374;2022-11-03T04:31:36;5.78;;;4.85;;
37303;SDS011;23188;51.188;16.374;2022-11-03T04:35:38;8.35;;;3.35;;
37303;SDS011;23188;51.188;16.374;2022-11-03T04:39:40;7.72;;;4.35;;
37303;SDS011;23188;51.188;16.374;2022-11-03T04:43:41;5.42;;;3.42;;
37303;SDS011;23188;51.188;16.374;2022-11-03T04:47:45;5.28;;;3.42;;
37303;SDS011;23188;51.188;16.374;2022-11-03T04:51:46;7.72;;;4.37;;
37303;SDS011;23188;51.188;16.374;2022-11-03T04:55:50;11.05;;;3.62;;
37303;SDS011;23188;51.188;16.374;2022-11-03T04:59:52;5.62;;;3.42;;
37303;SDS011;23188;51.188;16.374;2022-11-03T05:03:54;4.65;;;3.72;;
37303;SDS011;23188;51.188;16.374;2022-11-03T05:07:56;4.55;;;4.12;;
37303;SDS011;23188;51.188;16.374;2022-11-03T05:11:59;7.05;;;4.83;;
37303;SDS011;23188;51.188;16.374;2022-11-03T05:16:01;5.45;;;4.47;;
37303;SDS011;23188;51.188;16.374;2022-11-03T05:24:12;6.35;;;4.65;;
37303;SDS011;23188;51.188;16.374;2022-11-03T05:28:21;15.15;;;5.20;;
37303;SDS011;23188;51.188;16.374;2022-11-03T05:32:27;12.63;;;6.90;;
37303;SDS011;23188;51.188;16.374;2022-11-03T05:36:32;9.58;;;5.95;;
37303;SDS011;23188;51.188;16.374;2022-11-03T05:40:33;9.38;;;6.50;;
37303;SDS011;23188;51.188;16.374;2022-11-03T05:44:35;15.15;;;10.48;;
37303;SDS011;23188;51.188;16.374;2022-11-03T05:48:39;14.80;;;6.47;;
37303;SDS011;23188;51.188;16.374;2022-11-03T05:52:44;9.23;;;6.28;;
37303;SDS011;23188;51.188;16.374;2022-11-03T05:56:47;10.23;;;5.47;;
37303;SDS011;23188;51.188;16.374;2022-11-03T06:00:48;10.05;;;6.08;;
37303;SDS011;23188;51.188;16.374;2022-11-03T06:04:49;21.30;;;6.47;;
37303;SDS011;23188;51.188;16.374;2022-11-03T06:08:51;9.58;;;7.20;;
37303;SDS011;23188;51.188;16.374;2022-11-03T06:12:53;11.43;;;7.00;;
37303;SDS011;23188;51.188;16.374;2022-11-03T06:17:09;7.95;;;6.08;;
37303;SDS011;23188;51.188;16.374;2022-11-03T06:21:18;11.48;;;7.75;;
37303;SDS011;23188;51.188;16.374;2022-11-03T06:25:28;14.40;;;8.60;;
37303;SDS011;23188;51.188;16.374;2022-11-03T06:29:32;13.72;;;6.83;;
37303;SDS011;23188;51.188;16.374;2022-11-03T06:33:34;6.92;;;5.37;;
37303;SDS011;23188;51.188;16.374;2022-11-03T06:37:35;14.90;;;6.05;;
37303;SDS011;23188;51.188;16.374;2022-11-03T06:41:37;13.70;;;6.95;;
37303;SDS011;23188;51.188;16.374;2022-11-03T06:45:41;7.42;;;6.08;;
37303;SDS011;23188;51.188;16.374;2022-11-03T06:49:52;8.95;;;5.58;;
37303;SDS011;23188;51.188;16.374;2022-11-03T06:54:00;10.00;;;5.10;;
37303;SDS011;23188;51.188;16.374;2022-11-03T07:02:48;13.00;;;5.67;;
37303;SDS011;23188;51.188;16.374;2022-11-03T07:06:51;12.33;;;7.00;;
37303;SDS011;23188;51.188;16.374;2022-11-03T07:15:27;4.80;;;4.10;;
37303;SDS011;23188;51.188;16.374;2022-11-03T07:19:35;9.63;;;5.90;;
37303;SDS011;23188;51.188;16.374;2022-11-03T07:23:40;8.03;;;5.62;;
37303;SDS011;23188;51.188;16.374;2022-11-03T07:27:41;8.85;;;5.72;;
37303;SDS011;23188;51.188;16.374;2022-11-03T07:31:43;9.93;;;4.90;;
37303;SDS011;23188;51.188;16.374;2022-11-03T07:35:45;6.80;;;5.35;;
37303;SDS011;23188;51.188;16.374;2022-11-03T07:39:48;9.30;;;5.47;;
37303;SDS011;23188;51.188;16.374;2022-11-03T07:43:54;9.35;;;5.37;;
37303;SDS011;23188;51.188;16.374;2022-11-03T07:47:58;11.78;;;5.40;;
37303;SDS011;23188;51.188;16.374;2022-11-03T07:52:04;9.63;;;5.40;;
37303;SDS011;23188;51.188;16.374;2022-11-03T07:56:19;8.90;;;5.17;;
37303;SDS011;23188;51.188;16.374;2022-11-03T08:00:25;11.55;;;5.78;;
37303;SDS011;23188;51.188;16.374;2022-11-03T08:04:28;7.17;;;5.25;;
37303;SDS011;23188;51.188;16.374;2022-11-03T08:08:31;6.12;;;4.95;;
37303;SDS011;23188;51.188;16.374;2022-11-03T08:12:32;11.25;;;5.50;;
37303;SDS011;23188;51.188;16.374;2022-11-03T08:16:34;11.18;;;4.37;;
37303;SDS011;23188;51.188;16.374;2022-11-03T08:20:35;7.42;;;4.83;;
37303;SDS011;23188;51.188;16.374;2022-11-03T08:24:36;10.90;;;4.90;;
37303;SDS011;23188;51.188;16.374;2022-11-03T08:28:38;9.70;;;5.05;;
37303;SDS011;23188;51.188;16.374;2022-11-03T08:32:39;12.33;;;5.05;;
37303;SDS011;23188;51.188;16.374;2022-11-03T08:36:40;8.50;;;4.15;;
37303;SDS011;23188;51.188;16.374;2022-11-03T08:40:42;8.85;;;5.12;;
37303;SDS011;23188;51.188;16.374;2022-11-03T08:44:43;5.70;;;4.33;;
37303;SDS011;23188;51.188;16.374;2022-11-03T08:48:44;13.90;;;4.20;;
37303;SDS011;23188;51.188;16.374;2022-11-03T08:52:46;6.45;;;3.00;;
37303;SDS011;23188;51.188;16.374;2022-11-03T08:56:47;6.67;;;2.67;;
37303;SDS011;23188;51.188;16.374;2022-11-03T09:00:48;4.83;;;2.58;;
37303;SDS011;23188;51.188;16.374;2022-11-03T09:04:50;8.90;;;3.92;;
37303;SDS011;23188;51.188;16.374;2022-11-03T09:08:51;23.70;;;17.60;;
37303;SDS011;23188;51.188;16.374;2022-11-03T09:12:53;21.68;;;10.08;;
37303;SDS011;23188;51.188;16.374;2022-11-03T09:16:54;7.35;;;5.37;;
37303;SDS011;23188;51.188;16.374;2022-11-03T09:20:56;7.50;;;4.30;;
37303;SDS011;23188;51.188;16.374;2022-11-03T09:24:57;4.15;;;3.12;;
37303;SDS011;23188;51.188;16.374;2022-11-03T09:28:58;5.90;;;3.08;;
37303;SDS011;23188;51.188;16.374;2022-11-03T09:33:00;7.70;;;3.17;;
37303;SDS011;23188;51.188;16.374;2022-11-03T09:37:01;6.62;;;4.10;;
37303;SDS011;23188;51.188;16.374;2022-11-03T09:41:03;6.12;;;3.67;;
37303;SDS011;23188;51.188;16.374;2022-11-03T09:54:09;7.85;;;3.08;;
37303;SDS011;23188;51.188;16.374;2022-11-03T10:11:40;17.60;;;3.42;;
37303;SDS011;23188;51.188;16.374;2022-11-03T10:15:42;4.83;;;3.15;;
37303;SDS011;23188;51.188;16.374;2022-11-03T10:19:44;7.30;;;3.22;;
37303;SDS011;23188;51.188;16.374;2022-11-03T10:23:48;6.58;;;3.30;;
37303;SDS011;23188;51.188;16.374;2022-11-03T10:27:49;5.45;;;3.60;;
37303;SDS011;23188;51.188;16.374;2022-11-03T10:31:52;11.15;;;3.15;;
37303;SDS011;23188;51.188;16.374;2022-11-03T10:35:57;7.17;;;2.85;;
37303;SDS011;23188;51.188;16.374;2022-11-03T10:40:00;3.77;;;2.67;;
37303;SDS011;23188;51.188;16.374;2022-11-03T10:48:19;4.42;;;2.40;;
37303;SDS011;23188;51.188;16.374;2022-11-03T10:52:21;5.55;;;2.45;;
37303;SDS011;23188;51.188;16.374;2022-11-03T10:56:25;7.50;;;3.02;;
37303;SDS011;23188;51.188;16.374;2022-11-03T11:00:26;14.78;;;3.75;;
37303;SDS011;23188;51.188;16.374;2022-11-03T11:04:30;9.40;;;4.45;;
37303;SDS011;23188;51.188;16.374;2022-11-03T11:08:32;4.75;;;3.37;;
37303;SDS011;23188;51.188;16.374;2022-11-03T11:12:33;4.53;;;2.55;;
37303;SDS011;23188;51.188;16.374;2022-11-03T11:25:02;10.05;;;4.42;;
37303;SDS011;23188;51.188;16.374;2022-11-03T11:33:21;6.70;;;3.08;;
37303;SDS011;23188;51.188;16.374;2022-11-03T11:50:41;9.25;;;2.85;;
37303;SDS011;23188;51.188;16.374;2022-11-03T11:54:43;6.92;;;5.33;;
37303;SDS011;23188;51.188;16.374;2022-11-03T11:58:52;14.50;;;3.33;;
37303;SDS011;23188;51.188;16.374;2022-11-03T12:02:54;7.65;;;3.50;;
37303;SDS011;23188;51.188;16.374;2022-11-03T12:06:56;8.75;;;3.58;;
37303;SDS011;23188;51.188;16.374;2022-11-03T12:10:58;7.80;;;3.37;;
37303;SDS011;23188;51.188;16.374;2022-11-03T12:15:02;6.42;;;2.98;;
37303;SDS011;23188;51.188;16.374;2022-11-03T12:23:42;7.15;;;3.83;;
37303;SDS011;23188;51.188;16.374;2022-11-03T12:27:46;17.23;;;8.48;;
37303;SDS011;23188;51.188;16.374;2022-11-03T12:31:48;14.00;;;4.28;;
37303;SDS011;23188;51.188;16.374;2022-11-03T12:35:49;14.35;;;9.50;;
37303;SDS011;23188;51.188;16.374;2022-11-03T12:39:51;5.85;;;4.42;;
37303;SDS011;23188;51.188;16.374;2022-11-03T12:43:52;8.00;;;4.92;;
37303;SDS011;23188;51.188;16.374;2022-11-03T12:47:55;11.25;;;3.80;;
37303;SDS011;23188;51.188;16.374;2022-11-03T12:51:56;13.70;;;4.95;;
37303;SDS011;23188;51.188;16.374;2022-11-03T12:56:02;5.47;;;3.72;;
37303;SDS011;23188;51.188;16.374;2022-11-03T13:00:04;8.10;;;3.17;;
37303;SDS011;23188;51.188;16.374;2022-11-03T13:04:07;8.50;;;4.28;;
37303;SDS011;23188;51.188;16.374;2022-11-03T13:08:08;6.83;;;3.85;;
37303;SDS011;23188;51.188;16.374;2022-11-03T13:12:10;7.00;;;2.52;;
37303;SDS011;23188;51.188;16.374;2022-11-03T13:16:30;22.05;;;16.25;;
37303;SDS011;23188;51.188;16.374;2022-11-03T13:20:32;18.98;;;10.05;;
37303;SDS011;23188;51.188;16.374;2022-11-03T13:24:35;5.58;;;4.62;;
37303;SDS011;23188;51.188;16.374;2022-11-03T13:28:36;7.80;;;3.62;;
37303;SDS011;23188;51.188;16.374;2022-11-03T13:32:38;6.50;;;3.50;;
37303;SDS011;23188;51.188;16.374;2022-11-03T13:36:39;10.93;;;3.80;;
37303;SDS011;23188;51.188;16.374;2022-11-03T13:40:41;5.47;;;2.92;;
37303;SDS011;23188;51.188;16.374;2022-11-03T13:44:42;5.67;;;2.90;;
37303;SDS011;23188;51.188;16.374;2022-11-03T13:48:44;8.60;;;3.50;;
37303;SDS011;23188;51.188;16.374;2022-11-03T13:52:46;8.30;;;4.28;;
37303;SDS011;23188;51.188;16.374;2022-11-03T13:56:48;8.40;;;5.75;;
37303;SDS011;23188;51.188;16.374;2022-11-03T14:00:49;8.18;;;5.83;;
37303;SDS011;23188;51.188;16.374;2022-11-03T14:04:50;9.43;;;4.15;;
37303;SDS011;23188;51.188;16.374;2022-11-03T14:08:52;7.10;;;4.05;;
37303;SDS011;23188;51.188;16.374;2022-11-03T14:12:53;8.78;;;4.25;;
37303;SDS011;23188;51.188;16.374;2022-11-03T14:16:55;6.65;;;3.60;;
37303;SDS011;23188;51.188;16.374;2022-11-03T14:20:56;4.80;;;3.72;;
37303;SDS011;23188;51.188;16.374;2022-11-03T14:24:58;9.35;;;3.90;;
37303;SDS011;23188;51.188;16.374;2022-11-03T14:29:00;5.53;;;3.77;;
37303;SDS011;23188;51.188;16.374;2022-11-03T14:33:02;7.12;;;3.77;;
37303;SDS011;23188;51.188;16.374;2022-11-03T14:37:04;6.62;;;3.20;;
37303;SDS011;23188;51.188;16.374;2022-11-03T14:41:05;8.15;;;3.80;;
37303;SDS011;23188;51.188;16.374;2022-11-03T14:45:25;11.57;;;3.67;;
37303;SDS011;23188;51.188;16.374;2022-11-03T14:49:27;5.28;;;3.90;;
37303;SDS011;23188;51.188;16.374;2022-11-03T14:53:32;4.92;;;2.87;;
37303;SDS011;23188;51.188;16.374;2022-11-03T14:57:33;7.30;;;3.55;;
37303;SDS011;23188;51.188;16.374;2022-11-03T15:01:34;5.35;;;4.10;;
37303;SDS011;23188;51.188;16.374;2022-11-03T15:05:38;12.33;;;4.47;;
37303;SDS011;23188;51.188;16.374;2022-11-03T15:09:45;17.30;;;4.90;;
37303;SDS011;23188;51.188;16.374;2022-11-03T15:13:47;11.65;;;6.55;;
37303;SDS011;23188;51.188;16.374;2022-11-03T15:17:48;9.55;;;5.10;;
37303;SDS011;23188;51.188;16.374;2022-11-03T15:21:49;16.48;;;10.43;;
37303;SDS011;23188;51.188;16.374;2022-11-03T15:25:51;34.00;;;20.45;;
37303;SDS011;23188;51.188;16.374;2022-11-03T15:29:52;26.90;;;16.15;;
37303;SDS011;23188;51.188;16.374;2022-11-03T15:33:54;14.18;;;8.65;;
37303;SDS011;23188;51.188;16.374;2022-11-03T15:37:55;12.07;;;7.90;;
37303;SDS011;23188;51.188;16.374;2022-11-03T15:42:00;30.08;;;12.82;;
37303;SDS011;23188;51.188;16.374;2022-11-03T15:46:01;26.95;;;13.28;;
37303;SDS011;23188;51.188;16.374;2022-11-03T15:50:03;29.48;;;16.12;;
37303;SDS011;23188;51.188;16.374;2022-11-03T15:54:06;32.40;;;15.88;;
37303;SDS011;23188;51.188;16.374;2022-11-03T15:58:07;18.77;;;10.75;;
37303;SDS011;23188;51.188;16.374;2022-11-03T16:02:09;27.85;;;12.78;;
37303;SDS011;23188;51.188;16.374;2022-11-03T16:06:10;19.00;;;10.15;;
37303;SDS011;23188;51.188;16.374;2022-11-03T16:10:12;18.30;;;9.83;;
37303;SDS011;23188;51.188;16.374;2022-11-03T16:14:13;21.93;;;11.78;;
37303;SDS011;23188;51.188;16.374;2022-11-03T16:18:15;16.62;;;10.32;;
37303;SDS011;23188;51.188;16.374;2022-11-03T16:22:16;18.60;;;10.32;;
37303;SDS011;23188;51.188;16.374;2022-11-03T16:26:17;18.98;;;12.23;;
37303;SDS011;23188;51.188;16.374;2022-11-03T16:30:21;19.98;;;12.03;;
37303;SDS011;23188;51.188;16.374;2022-11-03T16:34:23;20.55;;;14.18;;
37303;SDS011;23188;51.188;16.374;2022-11-03T16:38:24;33.95;;;19.32;;
37303;SDS011;23188;51.188;16.374;2022-11-03T16:42:26;25.45;;;13.35;;
37303;SDS011;23188;51.188;16.374;2022-11-03T16:46:27;24.00;;;14.83;;
37303;SDS011;23188;51.188;16.374;2022-11-03T16:50:29;21.48;;;11.85;;
37303;SDS011;23188;51.188;16.374;2022-11-03T16:54:32;17.67;;;12.15;;
37303;SDS011;23188;51.188;16.374;2022-11-03T16:58:35;16.85;;;10.48;;
37303;SDS011;23188;51.188;16.374;2022-11-03T17:02:36;22.07;;;11.75;;
37303;SDS011;23188;51.188;16.374;2022-11-03T17:06:38;19.57;;;13.25;;
37303;SDS011;23188;51.188;16.374;2022-11-03T17:10:40;19.17;;;14.78;;
37303;SDS011;23188;51.188;16.374;2022-11-03T17:14:41;22.95;;;16.65;;
37303;SDS011;23188;51.188;16.374;2022-11-03T17:27:17;24.90;;;17.65;;
37303;SDS011;23188;51.188;16.374;2022-11-03T17:39:39;26.40;;;16.23;;
37303;SDS011;23188;51.188;16.374;2022-11-03T17:43:41;42.00;;;16.93;;
37303;SDS011;23188;51.188;16.374;2022-11-03T17:47:42;31.75;;;17.25;;
37303;SDS011;23188;51.188;16.374;2022-11-03T17:51:44;28.42;;;17.55;;
37303;SDS011;23188;51.188;16.374;2022-11-03T17:55:46;22.05;;;14.60;;
37303;SDS011;23188;51.188;16.374;2022-11-03T17:59:49;31.95;;;18.02;;
37303;SDS011;23188;51.188;16.374;2022-11-03T18:03:54;25.50;;;15.27;;
37303;SDS011;23188;51.188;16.374;2022-11-03T18:07:56;22.98;;;14.65;;
37303;SDS011;23188;51.188;16.374;2022-11-03T18:12:00;23.07;;;13.93;;
37303;SDS011;23188;51.188;16.374;2022-11-03T18:16:20;26.27;;;14.00;;
37303;SDS011;23188;51.188;16.374;2022-11-03T18:20:28;16.65;;;12.55;;
37303;SDS011;23188;51.188;16.374;2022-11-03T18:24:30;22.22;;;13.62;;
37303;SDS011;23188;51.188;16.374;2022-11-03T18:28:31;25.92;;;14.95;;
37303;SDS011;23188;51.188;16.374;2022-11-03T18:32:33;23.27;;;13.78;;
37303;SDS011;23188;51.188;16.374;2022-11-03T18:36:36;22.45;;;13.43;;
37303;SDS011;23188;51.188;16.374;2022-11-03T18:44:51;20.08;;;13.03;;
37303;SDS011;23188;51.188;16.374;2022-11-03T18:48:52;20.62;;;16.15;;
37303;SDS011;23188;51.188;16.374;2022-11-03T18:52:53;27.95;;;15.72;;
37303;SDS011;23188;51.188;16.374;2022-11-03T18:56:55;31.37;;;17.32;;
37303;SDS011;23188;51.188;16.374;2022-11-03T19:00:57;26.62;;;16.87;;
37303;SDS011;23188;51.188;16.374;2022-11-03T19:05:04;28.40;;;16.40;;
37303;SDS011;23188;51.188;16.374;2022-11-03T19:09:07;22.20;;;15.08;;
37303;SDS011;23188;51.188;16.374;2022-11-03T19:13:12;33.18;;;19.05;;
37303;SDS011;23188;51.188;16.374;2022-11-03T19:17:28;24.02;;;15.88;;
37303;SDS011;23188;51.188;16.374;2022-11-03T19:21:33;27.67;;;16.48;;
37303;SDS011;23188;51.188;16.374;2022-11-03T19:25:35;24.63;;;15.85;;
37303;SDS011;23188;51.188;16.374;2022-11-03T19:29:41;30.92;;;17.10;;
37303;SDS011;23188;51.188;16.374;2022-11-03T19:33:44;33.10;;;16.85;;
37303;SDS011;23188;51.188;16.374;2022-11-03T19:37:48;31.17;;;17.25;;
37303;SDS011;23188;51.188;16.374;2022-11-03T19:42:09;29.42;;;20.77;;
37303;SDS011;23188;51.188;16.374;2022-11-03T19:46:31;34.30;;;21.30;;
37303;SDS011;23188;51.188;16.374;2022-11-03T19:50:32;34.53;;;21.02;;
37303;SDS011;23188;51.188;16.374;2022-11-03T19:54:36;25.17;;;16.82;;
37303;SDS011;23188;51.188;16.374;2022-11-03T19:58:37;27.50;;;17.55;;
37303;SDS011;23188;51.188;16.374;2022-11-03T20:02:39;21.90;;;16.97;;
37303;SDS011;23188;51.188;16.374;2022-11-03T20:06:40;33.65;;;17.62;;
37303;SDS011;23188;51.188;16.374;2022-11-03T20:10:42;28.32;;;18.90;;
37303;SDS011;23188;51.188;16.374;2022-11-03T20:14:45;41.92;;;26.27;;
37303;SDS011;23188;51.188;16.374;2022-11-03T20:18:55;34.78;;;22.35;;
37303;SDS011;23188;51.188;16.374;2022-11-03T20:22:57;29.72;;;20.43;;
37303;SDS011;23188;51.188;16.374;2022-11-03T20:27:03;36.35;;;22.20;;
37303;SDS011;23188;51.188;16.374;2022-11-03T20:31:05;25.35;;;18.87;;
37303;SDS011;23188;51.188;16.374;2022-11-03T20:35:08;24.98;;;17.05;;
37303;SDS011;23188;51.188;16.374;2022-11-03T20:39:20;27.20;;;16.12;;
37303;SDS011;23188;51.188;16.374;2022-11-03T20:47:35;33.23;;;18.07;;
37303;SDS011;23188;51.188;16.374;2022-11-03T20:51:41;22.50;;;16.25;;
37303;SDS011;23188;51.188;16.374;2022-11-03T20:55:45;20.50;;;13.75;;
37303;SDS011;23188;51.188;16.374;2022-11-03T20:59:48;22.98;;;16.30;;
37303;SDS011;23188;51.188;16.374;2022-11-03T21:03:49;23.90;;;14.73;;
37303;SDS011;23188;51.188;16.374;2022-11-03T21:07:51;22.60;;;14.28;;
37303;SDS011;23188;51.188;16.374;2022-11-03T21:11:54;21.42;;;14.43;;
37303;SDS011;23188;51.188;16.374;2022-11-03T21:15:55;24.25;;;15.30;;
37303;SDS011;23188;51.188;16.374;2022-11-03T21:20:17;22.67;;;13.75;;
37303;SDS011;23188;51.188;16.374;2022-11-03T21:24:18;22.55;;;14.23;;
37303;SDS011;23188;51.188;16.374;2022-11-03T21:28:19;21.57;;;15.98;;
37303;SDS011;23188;51.188;16.374;2022-11-03T21:32:22;18.77;;;13.58;;
37303;SDS011;23188;51.188;16.374;2022-11-03T21:36:24;20.60;;;13.53;;
37303;SDS011;23188;51.188;16.374;2022-11-03T21:40:25;23.87;;;14.28;;
37303;SDS011;23188;51.188;16.374;2022-11-03T21:44:27;22.70;;;13.35;;
37303;SDS011;23188;51.188;16.374;2022-11-03T21:48:29;20.52;;;13.65;;
37303;SDS011;23188;51.188;16.374;2022-11-03T21:52:49;22.73;;;16.48;;
37303;SDS011;23188;51.188;16.374;2022-11-03T21:56:51;17.67;;;13.75;;
37303;SDS011;23188;51.188;16.374;2022-11-03T22:00:52;22.32;;;15.03;;
37303;SDS011;23188;51.188;16.374;2022-11-03T22:04:54;28.05;;;14.35;;
37303;SDS011;23188;51.188;16.374;2022-11-03T22:08:56;20.43;;;14.83;;
37303;SDS011;23188;51.188;16.374;2022-11-03T22:12:57;20.15;;;14.50;;
37303;SDS011;23188;51.188;16.374;2022-11-03T22:16:59;28.23;;;16.87;;
37303;SDS011;23188;51.188;16.374;2022-11-03T22:21:00;24.23;;;16.50;;
37303;SDS011;23188;51.188;16.374;2022-11-03T22:25:24;23.45;;;15.28;;
37303;SDS011;23188;51.188;16.374;2022-11-03T22:29:43;32.67;;;16.50;;
37303;SDS011;23188;51.188;16.374;2022-11-03T22:34:03;20.17;;;15.95;;
37303;SDS011;23188;51.188;16.374;2022-11-03T22:38:22;28.02;;;17.32;;
37303;SDS011;23188;51.188;16.374;2022-11-03T22:42:39;31.23;;;18.90;;
37303;SDS011;23188;51.188;16.374;2022-11-03T22:46:59;31.62;;;19.60;;
37303;SDS011;23188;51.188;16.374;2022-11-03T22:51:08;31.97;;;20.30;;
37303;SDS011;23188;51.188;16.374;2022-11-03T22:55:09;23.30;;;16.42;;
37303;SDS011;23188;51.188;16.374;2022-11-03T22:59:10;22.40;;;15.95;;
37303;SDS011;23188;51.188;16.374;2022-11-03T23:03:12;24.32;;;17.87;;
37303;SDS011;23188;51.188;16.374;2022-11-03T23:07:15;21.40;;;14.68;;
37303;SDS011;23188;51.188;16.374;2022-11-03T23:11:17;26.82;;;17.77;;
37303;SDS011;23188;51.188;16.374;2022-11-03T23:15:33;22.70;;;17.50;;
37303;SDS011;23188;51.188;16.374;2022-11-03T23:19:34;23.32;;;16.27;;
37303;SDS011;23188;51.188;16.374;2022-11-03T23:23:54;29.70;;;16.85;;
37303;SDS011;23188;51.188;16.374;2022-11-03T23:28:15;171.05;;;102.60;;
37303;SDS011;23188;51.188;16.374;2022-11-03T23:36:24;45.30;;;26.33;;
37303;SDS011;23188;51.188;16.374;2022-11-03T23:40:26;28.12;;;17.32;;
37303;SDS011;23188;51.188;16.374;2022-11-03T23:44:27;25.70;;;18.70;;
37303;SDS011;23188;51.188;16.374;2022-11-03T23:48:30;24.37;;;18.15;;
37303;SDS011;23188;51.188;16.374;2022-11-03T23:52:46;25.80;;;17.20;;
37303;SDS011;23188;51.188;16.374;2022-11-03T23:56:54;30.72;;;19.37;;
